| time (UTC) | temp C | wind direction | speed KPH | gust KPH | rain 1hr cm | rain 24hr cm | rain mn cm | humidity % | barometer mb |
| 20260505153321 | 23 | 88 | 1.6 | 0.0 | 0.00 | 0.00 | 0.00 | 55 | 1009.2 |
| 20260505152827 | 23 | 48 | 1.6 | 0.0 | 0.00 | 0.00 | 0.00 | 56 | 1009.2 |
| 20260505152324 | 23 | 322 | 1.6 | 0.0 | 0.00 | 0.00 | 0.00 | 56 | 1009.3 |
| 20260505151837 | 23 | 341 | 1.6 | 0.0 | 0.00 | 0.00 | 0.00 | 56 | 1009.4 |
| 20260505151334 | 23 | 260 | 1.6 | 0.0 | 0.00 | 0.00 | 0.00 | 57 | 1009.3 |
| 20260505150902 | 23 | 329 | 1.6 | 0.0 | 0.00 | 0.00 | 0.00 | 56 | 1009.4 |
| 20260505150320 | 22 | 355 | 0.0 | 0.0 | 0.00 | 0.00 | 0.00 | 59 | 1009.5 |
| 20260505140331 | 20 | 355 | 0.0 | 0.0 | 0.00 | 0.00 | 0.00 | 68 | 1010.0 |
| 20260505124835 | 16 | 123 | 0.0 | 0.0 | 0.00 | 0.00 | 0.00 | 86 | 1010.5 |
| 20260505124343 | 15 | 123 | 0.0 | 0.0 | 0.00 | 0.00 | 0.00 | 90 | 1010.5 |
| 20260505123840 | 15 | 123 | 0.0 | 0.0 | 0.00 | 0.00 | 0.00 | 91 | 1010.4 |
| 20260505123337 | 15 | 123 | 0.0 | 0.0 | 0.00 | 0.00 | 0.00 | 93 | 1010.4 |
| 20260505122830 | 14 | 123 | 0.0 | 0.0 | 0.00 | 0.00 | 0.00 | 94 | 1010.2 |
| 20260505122327 | 14 | 123 | 0.0 | 0.0 | 0.00 | 0.00 | 0.00 | 95 | 1010.2 |
| 20260505121837 | 13 | 123 | 0.0 | 0.0 | 0.00 | 0.00 | 0.00 | 96 | 1010.2 |
| 20260505121334 | 13 | 123 | 0.0 | 0.0 | 0.00 | 0.00 | 0.00 | 97 | 1010.2 |
| 20260505120851 | 13 | 123 | 0.0 | 0.0 | 0.00 | 0.00 | 0.00 | 97 | 1010.1 |
| 20260505120336 | 13 | 127 | 0.0 | 0.0 | 0.00 | 0.00 | 0.00 | 97 | 1010.1 |
| 20260505115833 | 13 | 127 | 0.0 | 0.0 | 0.00 | 0.00 | 0.00 | 97 | 1010.1 |
| 20260505115330 | 12 | 127 | 0.0 | 0.0 | 0.00 | 0.00 | 0.00 | 97 | 1010.1 |
| 20260505114826 | 12 | 128 | 0.0 | 0.0 | 0.00 | 0.00 | 0.00 | 97 | 1010.0 |
| 20260505114351 | 12 | 128 | 0.0 | 0.0 | 0.00 | 0.00 | 0.00 | 97 | 1010.1 |
| 20260505113828 | 12 | 128 | 0.0 | 0.0 | 0.00 | 0.00 | 0.00 | 97 | 1010.1 |
| 20260505113350 | 12 | 128 | 0.0 | 0.0 | 0.00 | 0.00 | 0.00 | 97 | 1010.1 |
| 20260505112828 | 11 | 128 | 0.0 | 0.0 | 0.00 | 0.00 | 0.00 | 97 | 1010.0 |
| 20260505112353 | 11 | 128 | 0.0 | 0.0 | 0.00 | 0.00 | 0.00 | 96 | 1009.9 |
| 20260505111831 | 11 | 128 | 0.0 | 0.0 | 0.00 | 0.00 | 0.00 | 96 | 1009.8 |
| 20260505111337 | 11 | 128 | 0.0 | 0.0 | 0.00 | 0.00 | 0.00 | 96 | 1009.8 |
| 20260505110854 | 11 | 128 | 0.0 | 0.0 | 0.00 | 0.00 | 0.00 | 96 | 1009.9 |
| 20260505110339 | 11 | 128 | 0.0 | 0.0 | 0.00 | 0.00 | 0.00 | 95 | 1009.7 |
| 20260505101844 | 11 | 127 | 0.0 | 0.0 | 0.00 | 0.00 | 0.00 | 94 | 1009.5 |
| 20260505101341 | 11 | 127 | 0.0 | 0.0 | 0.00 | 0.00 | 0.00 | 94 | 1009.5 |
| 20260505100838 | 11 | 127 | 0.0 | 0.0 | 0.00 | 0.00 | 0.00 | 94 | 1009.3 |
| 20260505100336 | 11 | 127 | 0.0 | 0.0 | 0.00 | 0.00 | 0.00 | 94 | 1009.4 |
| 20260505095832 | 11 | 127 | 0.0 | 0.0 | 0.00 | 0.00 | 0.00 | 94 | 1009.3 |
| 20260505095359 | 11 | 127 | 0.0 | 0.0 | 0.00 | 0.00 | 0.00 | 94 | 1009.3 |
| 20260505094834 | 11 | 127 | 0.0 | 0.0 | 0.00 | 0.00 | 0.00 | 94 | 1009.4 |
| 20260505094332 | 11 | 127 | 0.0 | 0.0 | 0.00 | 0.00 | 0.00 | 94 | 1009.4 |
| 20260505093829 | 11 | 128 | 0.0 | 0.0 | 0.00 | 0.00 | 0.00 | 93 | 1009.4 |
| 20260505093337 | 11 | 128 | 0.0 | 0.0 | 0.00 | 0.00 | 0.00 | 93 | 1009.3 |
| 20260505092834 | 11 | 128 | 0.0 | 0.0 | 0.00 | 0.00 | 0.00 | 93 | 1009.2 |
| 20260505092351 | 11 | 128 | 0.0 | 0.0 | 0.00 | 0.00 | 0.00 | 93 | 1009.2 |
| 20260505091837 | 11 | 127 | 0.0 | 0.0 | 0.00 | 0.00 | 0.00 | 93 | 1009.2 |
| 20260505091333 | 11 | 128 | 0.0 | 0.0 | 0.00 | 0.00 | 0.00 | 93 | 1009.2 |
| 20260505090851 | 11 | 128 | 0.0 | 0.0 | 0.00 | 0.00 | 0.00 | 93 | 1009.1 |
| 20260505090355 | 11 | 127 | 0.0 | 0.0 | 0.00 | 0.00 | 0.00 | 93 | 1009.2 |
| 20260505085830 | 12 | 127 | 0.0 | 0.0 | 0.00 | 0.00 | 0.00 | 93 | 1009.1 |
| 20260505085332 | 12 | 127 | 0.0 | 0.0 | 0.00 | 0.00 | 0.00 | 93 | 1009.4 |
| 20260505084829 | 12 | 127 | 0.0 | 0.0 | 0.00 | 0.00 | 0.00 | 93 | 1009.4 |
| 20260505084326 | 12 | 128 | 0.0 | 0.0 | 0.00 | 0.00 | 0.00 | 93 | 1009.2 |
| 20260505083822 | 12 | 128 | 0.0 | 0.0 | 0.00 | 0.00 | 0.00 | 92 | 1009.3 |
| 20260505083328 | 12 | 128 | 0.0 | 0.0 | 0.00 | 0.00 | 0.00 | 92 | 1009.4 |
| 20260505082826 | 12 | 128 | 0.0 | 0.0 | 0.00 | 0.00 | 0.00 | 92 | 1009.4 |
| 20260505082321 | 12 | 128 | 0.0 | 0.0 | 0.00 | 0.00 | 0.00 | 92 | 1009.3 |
| 20260505081828 | 12 | 128 | 0.0 | 0.0 | 0.00 | 0.00 | 0.00 | 92 | 1009.3 |
| 20260505081324 | 12 | 128 | 0.0 | 0.0 | 0.00 | 0.00 | 0.00 | 91 | 1009.3 |
| 20260505080825 | 12 | 128 | 0.0 | 0.0 | 0.00 | 0.00 | 0.00 | 91 | 1009.4 |
| 20260505080323 | 12 | 128 | 0.0 | 0.0 | 0.00 | 0.00 | 0.00 | 90 | 1009.4 |
| 20260505075825 | 12 | 128 | 0.0 | 0.0 | 0.00 | 0.00 | 0.00 | 89 | 1009.3 |
| 20260505075322 | 13 | 127 | 0.0 | 0.0 | 0.00 | 0.00 | 0.00 | 90 | 1009.3 |
| 20260505074833 | 13 | 127 | 0.0 | 0.0 | 0.00 | 0.00 | 0.00 | 89 | 1009.1 |
| 20260505074341 | 13 | 128 | 0.0 | 0.0 | 0.00 | 0.00 | 0.00 | 88 | 1008.9 |
| 20260505073838 | 13 | 128 | 0.0 | 0.0 | 0.00 | 0.00 | 0.00 | 86 | 1008.9 |
| 20260505073340 | 13 | 128 | 0.0 | 0.0 | 0.00 | 0.00 | 0.00 | 87 | 1008.8 |
| 20260505072857 | 13 | 128 | 0.0 | 0.0 | 0.00 | 0.00 | 0.00 | 86 | 1008.8 |
| 20260505072345 | 13 | 128 | 0.0 | 0.0 | 0.00 | 0.00 | 0.00 | 86 | 1008.9 |
| 20260505071842 | 13 | 128 | 0.0 | 0.0 | 0.00 | 0.00 | 0.00 | 85 | 1009.1 |
| 20260505071346 | 13 | 127 | 0.0 | 0.0 | 0.00 | 0.00 | 0.00 | 85 | 1009.2 |
| 20260505070847 | 13 | 128 | 0.0 | 0.0 | 0.00 | 0.00 | 0.00 | 85 | 1009.1 |
| 20260505070326 | 13 | 128 | 0.0 | 0.0 | 0.00 | 0.00 | 0.00 | 85 | 1009.2 |
| 20260505065821 | 13 | 128 | 0.0 | 0.0 | 0.00 | 0.00 | 0.00 | 84 | 1009.2 |
| 20260505065343 | 13 | 128 | 0.0 | 0.0 | 0.00 | 0.00 | 0.00 | 84 | 1009.2 |
| 20260505064822 | 13 | 128 | 0.0 | 0.0 | 0.00 | 0.00 | 0.00 | 83 | 1009.0 |
| 20260505064336 | 13 | 128 | 0.0 | 0.0 | 0.00 | 0.00 | 0.00 | 81 | 1009.1 |
| 20260505063842 | 13 | 128 | 0.0 | 0.0 | 0.00 | 0.00 | 0.00 | 80 | 1009.1 |
| 20260505063358 | 13 | 128 | 0.0 | 0.0 | 0.00 | 0.00 | 0.00 | 80 | 1009.2 |
| 20260505062906 | 12 | 128 | 0.0 | 0.0 | 0.00 | 0.00 | 0.00 | 81 | 1009.1 |
| 20260505062321 | 12 | 128 | 0.0 | 0.0 | 0.00 | 0.00 | 0.00 | 80 | 1009.2 |
| 20260505061838 | 12 | 128 | 0.0 | 0.0 | 0.00 | 0.00 | 0.00 | 80 | 1009.2 |
| 20260505061335 | 12 | 128 | 0.0 | 0.0 | 0.00 | 0.00 | 0.00 | 81 | 1009.2 |
| 20260505060844 | 12 | 128 | 0.0 | 0.0 | 0.00 | 0.00 | 0.00 | 80 | 1009.1 |
| 20260505060400 | 12 | 128 | 0.0 | 0.0 | 0.00 | 0.00 | 0.00 | 79 | 1009.2 |
| 20260505055837 | 12 | 128 | 0.0 | 0.0 | 0.00 | 0.00 | 0.00 | 80 | 1009.3 |
| 20260505055347 | 12 | 128 | 0.0 | 0.0 | 0.00 | 0.00 | 0.00 | 79 | 1009.3 |
| 20260505054844 | 12 | 128 | 0.0 | 0.0 | 0.00 | 0.00 | 0.00 | 79 | 1009.2 |
| 20260505054321 | 12 | 128 | 0.0 | 0.0 | 0.00 | 0.00 | 0.00 | 79 | 1009.2 |
| 20260505053838 | 12 | 128 | 0.0 | 0.0 | 0.00 | 0.00 | 0.00 | 78 | 1009.2 |
| 20260505053335 | 12 | 128 | 0.0 | 0.0 | 0.00 | 0.00 | 0.00 | 77 | 1009.2 |
| 20260505052843 | 12 | 128 | 0.0 | 0.0 | 0.00 | 0.00 | 0.00 | 77 | 1009.2 |
| 20260505052340 | 12 | 128 | 0.0 | 0.0 | 0.00 | 0.00 | 0.00 | 77 | 1009.2 |
| 20260505051837 | 12 | 128 | 0.0 | 0.0 | 0.00 | 0.00 | 0.00 | 77 | 1009.2 |
| 20260505051334 | 12 | 128 | 0.0 | 0.0 | 0.00 | 0.00 | 0.00 | 77 | 1009.2 |
| 20260505050858 | 13 | 128 | 0.0 | 0.0 | 0.00 | 0.00 | 0.00 | 77 | 1009.1 |
| 20260505050334 | 13 | 128 | 0.0 | 0.0 | 0.00 | 0.00 | 0.00 | 75 | 1009.1 |
| 20260505041333 | 13 | 128 | 0.0 | 0.0 | 0.00 | 0.00 | 0.00 | 73 | 1009.0 |
| 20260505040845 | 14 | 128 | 0.0 | 0.0 | 0.00 | 0.00 | 0.00 | 72 | 1009.0 |
| 20260505040330 | 14 | 128 | 0.0 | 0.0 | 0.00 | 0.00 | 0.00 | 72 | 1008.9 |
| 20260505035827 | 14 | 128 | 0.0 | 0.0 | 0.00 | 0.00 | 0.00 | 71 | 1008.9 |
| 20260505035353 | 14 | 128 | 0.0 | 0.0 | 0.00 | 0.00 | 0.00 | 71 | 1008.9 |
| 20260505034848 | 14 | 128 | 0.0 | 0.0 | 0.00 | 0.00 | 0.00 | 71 | 1008.9 |
| 20260505034332 | 14 | 128 | 0.0 | 0.0 | 0.00 | 0.00 | 0.00 | 70 | 1008.8 |
| 20260505033827 | 14 | 128 | 0.0 | 0.0 | 0.00 | 0.00 | 0.00 | 69 | 1008.8 |
| 20260505033321 | 15 | 128 | 0.0 | 0.0 | 0.00 | 0.00 | 0.00 | 69 | 1008.7 |
| 20260505032826 | 15 | 128 | 0.0 | 0.0 | 0.00 | 0.00 | 0.00 | 68 | 1008.7 |
| 20260505032323 | 15 | 127 | 0.0 | 0.0 | 0.00 | 0.00 | 0.00 | 67 | 1008.7 |
| 20260505031838 | 15 | 128 | 0.0 | 0.0 | 0.00 | 0.00 | 0.00 | 66 | 1008.8 |
| 20260505031344 | 15 | 128 | 0.0 | 0.0 | 0.00 | 0.00 | 0.00 | 67 | 1008.8 |
| 20260505030822 | 15 | 127 | 0.0 | 0.0 | 0.00 | 0.00 | 0.00 | 67 | 1008.9 |
| 20260505030337 | 15 | 128 | 0.0 | 0.0 | 0.00 | 0.00 | 0.00 | 66 | 1008.9 |
| 20260505025844 | 15 | 128 | 0.0 | 0.0 | 0.00 | 0.00 | 0.00 | 65 | 1008.8 |
| 20260505025321 | 15 | 128 | 0.0 | 0.0 | 0.00 | 0.00 | 0.00 | 64 | 1008.9 |
| 20260505024838 | 15 | 128 | 0.0 | 0.0 | 0.00 | 0.00 | 0.00 | 65 | 1009.0 |
| 20260505024335 | 15 | 128 | 0.0 | 0.0 | 0.00 | 0.00 | 0.00 | 64 | 1008.9 |
| 20260505023847 | 15 | 128 | 0.0 | 0.0 | 0.00 | 0.00 | 0.00 | 66 | 1009.0 |
| 20260505023344 | 15 | 128 | 0.0 | 0.0 | 0.00 | 0.00 | 0.00 | 66 | 1009.0 |
| 20260505022825 | 15 | 128 | 0.0 | 0.0 | 0.00 | 0.00 | 0.00 | 66 | 1009.0 |
| 20260505022327 | 15 | 128 | 0.0 | 0.0 | 0.00 | 0.00 | 0.00 | 65 | 1009.0 |
| 20260505021822 | 15 | 128 | 0.0 | 0.0 | 0.00 | 0.00 | 0.00 | 65 | 1009.1 |
| 20260505021344 | 15 | 128 | 0.0 | 0.0 | 0.00 | 0.00 | 0.00 | 64 | 1009.1 |
| 20260505020841 | 15 | 128 | 0.0 | 0.0 | 0.00 | 0.00 | 0.00 | 65 | 1009.2 |
| 20260505020338 | 15 | 128 | 0.0 | 0.0 | 0.00 | 0.00 | 0.00 | 66 | 1009.2 |
| 20260505015835 | 15 | 128 | 0.0 | 0.0 | 0.00 | 0.00 | 0.00 | 64 | 1009.2 |
| 20260505015332 | 15 | 128 | 0.0 | 0.0 | 0.00 | 0.00 | 0.00 | 64 | 1009.2 |
| 20260505014838 | 15 | 127 | 0.0 | 0.0 | 0.00 | 0.00 | 0.00 | 65 | 1009.2 |
| 20260505014355 | 15 | 127 | 0.0 | 0.0 | 0.00 | 0.00 | 0.00 | 65 | 1009.1 |
| 20260505013832 | 15 | 127 | 0.0 | 0.0 | 0.00 | 0.00 | 0.00 | 65 | 1009.1 |
| 20260505013338 | 15 | 127 | 0.0 | 0.0 | 0.00 | 0.00 | 0.00 | 64 | 1009.1 |
| 20260505012835 | 15 | 127 | 0.0 | 0.0 | 0.00 | 0.00 | 0.00 | 64 | 1009.1 |
| 20260505012348 | 16 | 127 | 0.0 | 0.0 | 0.00 | 0.00 | 0.00 | 64 | 1009.0 |
| 20260505011833 | 16 | 127 | 0.0 | 0.0 | 0.00 | 0.00 | 0.00 | 64 | 1009.0 |
| 20260505011330 | 16 | 127 | 0.0 | 0.0 | 0.00 | 0.00 | 0.00 | 64 | 1008.9 |
| 20260505010848 | 16 | 127 | 0.0 | 0.0 | 0.00 | 0.00 | 0.00 | 62 | 1008.8 |
| 20260505010353 | 16 | 127 | 0.0 | 0.0 | 0.00 | 0.00 | 0.00 | 63 | 1008.7 |
| 20260505005829 | 16 | 127 | 0.0 | 0.0 | 0.00 | 0.00 | 0.00 | 62 | 1008.7 |
| 20260505005335 | 16 | 127 | 0.0 | 0.0 | 0.00 | 0.00 | 0.00 | 61 | 1008.7 |
| 20260505004832 | 16 | 127 | 0.0 | 0.0 | 0.00 | 0.00 | 0.00 | 60 | 1008.7 |
| 20260505004332 | 16 | 127 | 0.0 | 0.0 | 0.00 | 0.00 | 0.00 | 61 | 1008.6 |
| 20260505003827 | 17 | 127 | 0.0 | 0.0 | 0.00 | 0.00 | 0.00 | 60 | 1008.6 |
| 20260505003333 | 17 | 127 | 0.0 | 0.0 | 0.00 | 0.00 | 0.00 | 59 | 1008.5 |
| 20260505002824 | 17 | 127 | 0.0 | 0.0 | 0.00 | 0.00 | 0.00 | 59 | 1008.6 |
| 20260505002322 | 17 | 127 | 0.0 | 0.0 | 0.00 | 0.00 | 0.00 | 59 | 1008.5 |
| 20260505001827 | 17 | 127 | 0.0 | 0.0 | 0.00 | 0.00 | 0.00 | 57 | 1008.5 |
| 20260505001342 | 17 | 127 | 0.0 | 0.0 | 0.00 | 0.00 | 0.00 | 56 | 1008.5 |
| 20260505000847 | 18 | 127 | 0.0 | 0.0 | 0.00 | 0.00 | 0.00 | 57 | 1008.4 |
| 20260505000321 | 18 | 127 | 0.0 | 0.0 | 0.00 | 0.00 | 0.00 | 54 | 1008.3 |
| 20260504235827 | 18 | 127 | 0.0 | 0.0 | 0.00 | 0.00 | 0.00 | 54 | 1008.3 |
| 20260504235322 | 19 | 129 | 0.0 | 0.0 | 0.00 | 0.00 | 0.00 | 54 | 1008.3 |
| 20260504234821 | 19 | 129 | 0.0 | 0.0 | 0.00 | 0.00 | 0.00 | 53 | 1008.2 |
| 20260504234327 | 20 | 129 | 0.0 | 0.0 | 0.00 | 0.00 | 0.00 | 48 | 1008.1 |
| 20260504233822 | 20 | 129 | 0.0 | 0.0 | 0.00 | 0.00 | 0.00 | 50 | 1008.0 |
| 20260504233347 | 20 | 128 | 0.0 | 0.0 | 0.00 | 0.00 | 0.00 | 47 | 1008.0 |
| 20260504232854 | 20 | 98 | 0.0 | 0.0 | 0.00 | 0.00 | 0.00 | 47 | 1008.0 |
| 20260504232347 | 20 | 21 | 0.0 | 0.0 | 0.00 | 0.00 | 0.00 | 51 | 1008.1 |
| 20260504231831 | 21 | 219 | 0.0 | 0.0 | 0.00 | 0.00 | 0.00 | 49 | 1008.0 |
| 20260504231326 | 21 | 108 | 0.0 | 0.0 | 0.00 | 0.00 | 0.00 | 49 | 1008.0 |
| 20260504230823 | 21 | 99 | 1.6 | 0.0 | 0.00 | 0.00 | 0.00 | 46 | 1007.9 |
| 20260504230321 | 21 | 153 | 0.0 | 0.0 | 0.00 | 0.00 | 0.00 | 46 | 1007.9 |
| 20260504225827 | 21 | 67 | 0.0 | 0.0 | 0.00 | 0.00 | 0.00 | 45 | 1007.9 |
| 20260504225321 | 22 | 67 | 0.0 | 0.0 | 0.00 | 0.00 | 0.00 | 50 | 1007.8 |
| 20260504224843 | 22 | 67 | 0.0 | 0.0 | 0.00 | 0.00 | 0.00 | 46 | 1007.8 |
| 20260504224337 | 22 | 5 | 0.0 | 0.0 | 0.00 | 0.00 | 0.00 | 47 | 1007.7 |
| 20260504223843 | 22 | 110 | 0.0 | 0.0 | 0.00 | 0.00 | 0.00 | 49 | 1007.7 |
| 20260504223342 | 23 | 274 | 0.0 | 0.0 | 0.00 | 0.00 | 0.00 | 47 | 1007.6 |
| 20260504222847 | 23 | 52 | 0.0 | 0.0 | 0.00 | 0.00 | 0.00 | 48 | 1007.6 |
| 20260504222324 | 23 | 316 | 0.0 | 0.0 | 0.00 | 0.00 | 0.00 | 44 | 1007.6 |
| 20260504221821 | 23 | 317 | 0.0 | 0.0 | 0.00 | 0.00 | 0.00 | 47 | 1007.6 |
| 20260504221409 | 23 | 291 | 0.0 | 0.0 | 0.00 | 0.00 | 0.00 | 46 | 1007.8 |
| 20260504220826 | 23 | 39 | 0.0 | 0.0 | 0.00 | 0.00 | 0.00 | 43 | 1007.8 |
| 20260504220323 | 23 | 40 | 0.0 | 0.0 | 0.00 | 0.00 | 0.00 | 43 | 1007.9 |
| 20260504215822 | 23 | 178 | 0.0 | 0.0 | 0.00 | 0.00 | 0.00 | 41 | 1007.9 |
| 20260504215333 | 23 | 329 | 0.0 | 0.0 | 0.00 | 0.00 | 0.00 | 45 | 1007.9 |
| 20260504214845 | 23 | 43 | 0.0 | 0.0 | 0.00 | 0.00 | 0.00 | 41 | 1008.0 |
| 20260504214342 | 23 | 23 | 0.0 | 0.0 | 0.00 | 0.00 | 0.00 | 40 | 1007.9 |
| 20260504213859 | 23 | 349 | 0.0 | 0.0 | 0.00 | 0.00 | 0.00 | 40 | 1008.0 |
| 20260504213343 | 23 | 360 | 0.0 | 0.0 | 0.00 | 0.00 | 0.00 | 46 | 1007.9 |
| 20260504212840 | 23 | 360 | 1.6 | 0.0 | 0.00 | 0.00 | 0.00 | 42 | 1007.9 |
| 20260504212338 | 23 | 349 | 1.6 | 0.0 | 0.00 | 0.00 | 0.00 | 40 | 1008.0 |
| 20260504211906 | 23 | 69 | 0.0 | 0.0 | 0.00 | 0.00 | 0.00 | 40 | 1007.9 |
| 20260504211342 | 23 | 306 | 1.6 | 0.0 | 0.00 | 0.00 | 0.00 | 43 | 1007.9 |
| 20260504210839 | 23 | 101 | 0.0 | 0.0 | 0.00 | 0.00 | 0.00 | 43 | 1008.0 |
| 20260504210331 | 23 | 192 | 0.0 | 0.0 | 0.00 | 0.00 | 0.00 | 40 | 1008.1 |
| 20260504205831 | 23 | 341 | 1.6 | 0.0 | 0.00 | 0.00 | 0.00 | 41 | 1008.1 |
| 20260504205329 | 23 | 11 | 1.6 | 0.0 | 0.00 | 0.00 | 0.00 | 41 | 1008.2 |
| 20260504204837 | 23 | 175 | 1.6 | 0.0 | 0.00 | 0.00 | 0.00 | 41 | 1008.2 |
| 20260504204336 | 23 | 338 | 1.6 | 0.0 | 0.00 | 0.00 | 0.00 | 42 | 1008.3 |
| 20260504203833 | 23 | 302 | 0.0 | 0.0 | 0.00 | 0.00 | 0.00 | 40 | 1008.2 |
| 20260504203405 | 23 | 20 | 1.6 | 0.0 | 0.00 | 0.00 | 0.00 | 40 | 1008.2 |
| 20260504202842 | 23 | 254 | 1.6 | 0.0 | 0.00 | 0.00 | 0.00 | 42 | 1008.2 |
| 20260504202338 | 23 | 283 | 1.6 | 0.0 | 0.00 | 0.00 | 0.00 | 39 | 1008.3 |
| 20260504201835 | 23 | 40 | 1.6 | 0.0 | 0.00 | 0.00 | 0.00 | 40 | 1008.4 |
| 20260504201342 | 23 | 297 | 1.6 | 0.0 | 0.00 | 0.00 | 0.00 | 42 | 1008.5 |
| 20260504200835 | 23 | 269 | 1.6 | 0.0 | 0.00 | 0.00 | 0.00 | 40 | 1008.6 |
| 20260504200332 | 23 | 327 | 1.6 | 0.0 | 0.00 | 0.00 | 0.00 | 40 | 1008.6 |
| 20260504195829 | 23 | 65 | 1.6 | 0.0 | 0.00 | 0.00 | 0.00 | 41 | 1008.6 |
| 20260504195333 | 23 | 62 | 1.6 | 0.0 | 0.00 | 0.00 | 0.00 | 39 | 1008.7 |
| 20260504194842 | 23 | 355 | 1.6 | 0.0 | 0.00 | 0.00 | 0.00 | 40 | 1008.7 |
| 20260504194338 | 22 | 65 | 1.6 | 0.0 | 0.00 | 0.00 | 0.00 | 41 | 1008.8 |
| 20260504193835 | 22 | 42 | 1.6 | 0.0 | 0.00 | 0.00 | 0.00 | 41 | 1008.9 |
| 20260504193331 | 22 | 235 | 3.2 | 0.0 | 0.00 | 0.00 | 0.00 | 41 | 1008.9 |
| 20260504192840 | 22 | 321 | 1.6 | 0.0 | 0.00 | 0.00 | 0.00 | 39 | 1008.9 |
| 20260504192340 | 22 | 288 | 1.6 | 0.0 | 0.00 | 0.00 | 0.00 | 42 | 1009.0 |
| 20260504191837 | 22 | 34 | 1.6 | 0.0 | 0.00 | 0.00 | 0.00 | 40 | 1009.0 |
| 20260504191350 | 22 | 342 | 1.6 | 0.0 | 0.00 | 0.00 | 0.00 | 41 | 1009.0 |
| 20260504190857 | 22 | 309 | 1.6 | 0.0 | 0.00 | 0.00 | 0.00 | 42 | 1009.2 |
| 20260504190337 | 22 | 40 | 1.6 | 0.0 | 0.00 | 0.00 | 0.00 | 41 | 1009.1 |
| 20260504185843 | 22 | 150 | 1.6 | 0.0 | 0.00 | 0.00 | 0.00 | 41 | 1009.2 |
| 20260504185340 | 22 | 5 | 1.6 | 0.0 | 0.00 | 0.00 | 0.00 | 42 | 1009.3 |
| 20260504184858 | 22 | 38 | 1.6 | 0.0 | 0.00 | 0.00 | 0.00 | 42 | 1009.4 |
| 20260504184345 | 22 | 148 | 1.6 | 0.0 | 0.00 | 0.00 | 0.00 | 42 | 1009.4 |
| 20260504183841 | 22 | 271 | 1.6 | 0.0 | 0.00 | 0.00 | 0.00 | 43 | 1009.5 |
| 20260504183339 | 22 | 78 | 1.6 | 0.0 | 0.00 | 0.00 | 0.00 | 41 | 1009.5 |
| 20260504182835 | 22 | 346 | 1.6 | 0.0 | 0.00 | 0.00 | 0.00 | 42 | 1009.7 |
| 20260504182332 | 22 | 40 | 1.6 | 0.0 | 0.00 | 0.00 | 0.00 | 42 | 1009.8 |
| 20260504181834 | 22 | 37 | 3.2 | 0.0 | 0.00 | 0.00 | 0.00 | 43 | 1009.9 |
| 20260504181331 | 22 | 292 | 1.6 | 0.0 | 0.00 | 0.00 | 0.00 | 42 | 1009.8 |
| 20260504180832 | 22 | 297 | 1.6 | 0.0 | 0.00 | 0.00 | 0.00 | 41 | 1009.8 |
| 20260504180403 | 22 | 291 | 1.6 | 0.0 | 0.00 | 0.00 | 0.00 | 41 | 1009.9 |
| 20260504175843 | 22 | 355 | 0.0 | 0.0 | 0.00 | 0.00 | 0.00 | 42 | 1009.9 |
| 20260504175320 | 21 | 348 | 1.6 | 0.0 | 0.00 | 0.00 | 0.00 | 45 | 1010.0 |
| 20260504174838 | 21 | 313 | 1.6 | 0.0 | 0.00 | 0.00 | 0.00 | 45 | 1010.1 |
| 20260504174407 | 21 | 16 | 1.6 | 0.0 | 0.00 | 0.00 | 0.00 | 44 | 1010.0 |
| 20260504173826 | 21 | 355 | 1.6 | 0.0 | 0.00 | 0.00 | 0.00 | 45 | 1010.0 |
| 20260504173320 | 21 | 240 | 1.6 | 0.0 | 0.00 | 0.00 | 0.00 | 49 | 1010.2 |
| 20260504172826 | 21 | 275 | 1.6 | 0.0 | 0.00 | 0.00 | 0.00 | 49 | 1010.3 |
| 20260504172340 | 20 | 43 | 1.6 | 0.0 | 0.00 | 0.00 | 0.00 | 44 | 1010.4 |
| 20260504171836 | 20 | 291 | 1.6 | 0.0 | 0.00 | 0.00 | 0.00 | 44 | 1010.6 |
| 20260504171344 | 20 | 25 | 1.6 | 0.0 | 0.00 | 0.00 | 0.00 | 46 | 1010.7 |
| 20260504170840 | 20 | 35 | 1.6 | 0.0 | 0.00 | 0.00 | 0.00 | 45 | 1010.7 |
| 20260504170357 | 20 | 303 | 1.6 | 0.0 | 0.00 | 0.00 | 0.00 | 45 | 1010.7 |
| 20260504160335 | 18 | 313 | 0.0 | 0.0 | 0.00 | 0.00 | 0.00 | 46 | 1011.8 |